^^
Grace C. Lehan Memorial Weather Station Historical Data
Daily Summary for October 16, 2021 Units:  Metric    English   Both
Daily Weekly Monthly Yearly
  High: Low: Average:
Temperature: 24.1 °C 14.6 °C 19.9 °C
Dew Point: 19.7 °C 13.4 °C 17.3 °C
Humidity: 96% 69.5% 86%
Wind Speed: 7.4km/h 0km/h 1.1km/h
Wind Gust: 24.1km/h - -
Wind- - SSW
Pressure: 1010 hPa 1001.2 hPa -
Precipitation: 7.37 mm    
 
 
Tabular Data for October 16, 2021
Time Temperature Dew Point Pressure Wind Wind Speed Wind Gust Humidity Rainfall Rate (Hourly) solar
00:09 18.6 °C 17.4 °C 1010 hPa Calm     93% 0 mm 0 W/m2
00:14 18.5 °C 17.3 °C 1010 hPa Calm     93% 0 mm 0 W/m2
00:19 18.4 °C 17.4 °C 1010 hPa Calm     93.3% 0 mm 0 W/m2
00:24 18.4 °C 17.3 °C 1010 hPa Calm     93% 0 mm 0 W/m2
00:29 18.4 °C 17.2 °C 1010 hPa Calm     93% 0 mm 0 W/m2
00:34 18.3 °C 17.2 °C 1010 hPa Calm     93% 0 mm 0 W/m2
00:39 18.2 °C 17.1 °C 1010 hPa Calm     93% 0 mm 0 W/m2
00:44 18.2 °C 17.1 °C 1010 hPa Calm     93.6% 0 mm 0 W/m2
00:49 18.1 °C 17.2 °C 1010 hPa Calm     94% 0 mm 0 W/m2
00:54 18.2 °C 17.2 °C 1010 hPa Calm     94% 0 mm 0 W/m2
00:59 18.2 °C 17.2 °C 1010 hPa Calm     94% 0 mm 0 W/m2
01:04 18.1 °C 17.2 °C 1009.7 hPa Calm     94% 0 mm 0 W/m2
01:09 18.1 °C 17.1 °C 1009.7 hPa Calm     94% 0 mm 0 W/m2
01:14 18.1 °C 17.1 °C 1009.7 hPa Calm     94% 0 mm 0 W/m2
01:19 18.1 °C 17.1 °C 1009.7 hPa Calm     94% 0 mm 0 W/m2
01:24 18 °C 17 °C 1009.7 hPa Calm     94% 0 mm 0 W/m2
01:29 18 °C 17 °C 1009.7 hPa Calm     94% 0 mm 0 W/m2
01:34 17.9 °C 17 °C 1009.7 hPa Calm     94% 0 mm 0 W/m2
01:39 17.9 °C 16.9 °C 1009.7 hPa Calm     94% 0 mm 0 W/m2
01:44 17.9 °C 16.9 °C 1009.7 hPa Calm     94% 0 mm 0 W/m2
01:49 17.8 °C 16.8 °C 1009.7 hPa Calm     94% 0 mm 0 W/m2
01:54 17.8 °C 16.8 °C 1009.7 hPa Calm     94% 0 mm 0 W/m2
01:59 17.7 °C 16.7 °C 1009.7 hPa Calm     94% 0 mm 0 W/m2
02:04 17.7 °C 16.7 °C 1009.7 hPa Calm     94% 0 mm 0 W/m2
02:09 17.6 °C 16.7 °C 1009.7 hPa Calm     94% 0 mm 0 W/m2
02:14 17.6 °C 16.7 °C 1009.7 hPa Calm     94% 0 mm 0 W/m2
02:19 17.6 °C 16.7 °C 1009.7 hPa Calm     94% 0 mm 0 W/m2
02:24 17.6 °C 16.6 °C 1009.7 hPa Calm     94% 0 mm 0 W/m2
02:29 17.6 °C 16.6 °C 1009.4 hPa Calm     94% 0 mm 0 W/m2
02:34 17.6 °C 16.6 °C 1009.4 hPa Calm     94% 0 mm 0 W/m2
02:39 17.5 °C 16.6 °C 1009.4 hPa Calm     94% 0 mm 0 W/m2
02:44 17.4 °C 16.5 °C 1009.4 hPa Calm     94.1% 0 mm 0 W/m2
02:49 17.4 °C 16.7 °C 1009 hPa Calm     95% 0 mm 0 W/m2
02:54 17.4 °C 16.5 °C 1009 hPa Calm     94% 0 mm 0 W/m2
02:59 17.4 °C 16.4 °C 1009 hPa Calm     94% 0 mm 0 W/m2
03:04 17.4 °C 16.4 °C 1009 hPa Calm     94% 0 mm 0 W/m2
03:09 17.3 °C 16.4 °C 1009 hPa Calm     94% 0 mm 0 W/m2
03:14 17.3 °C 16.3 °C 1009 hPa Calm     94% 0 mm 0 W/m2
03:19 17.3 °C 16.4 °C 1008.7 hPa Calm     94.7% 0 mm 0 W/m2
03:24 17.2 °C 16.4 °C 1008.7 hPa Calm     95% 0 mm 0 W/m2
03:29 17.2 °C 16.4 °C 1008.7 hPa Calm     95% 0 mm 0 W/m2
03:34 17.2 °C 16.4 °C 1008.7 hPa Calm     95% 0 mm 0 W/m2
03:39 17.2 °C 16.4 °C 1008.7 hPa Calm     95% 0 mm 0 W/m2
03:44 17.2 °C 16.4 °C 1008.7 hPa Calm     95% 0 mm 0 W/m2
03:49 17.2 °C 16.4 °C 1008.7 hPa Calm     95% 0 mm 0 W/m2
03:54 17.2 °C 16.4 °C 1008.7 hPa Calm     95% 0 mm 0 W/m2
03:59 17.2 °C 16.4 °C 1008.4 hPa Calm     95% 0 mm 0 W/m2
04:04 17.3 °C 16.6 °C 1008.4 hPa Calm     95% 0 mm 0 W/m2
04:09 17.4 °C 16.6 °C 1008.4 hPa Calm     95% 0 mm 0 W/m2
04:14 17.4 °C 16.6 °C 1008.4 hPa Calm     95% 0 mm 0 W/m2
04:19 17.3 °C 16.6 °C 1008.4 hPa Calm     95% 0 mm 0 W/m2
04:24 17.3 °C 16.4 °C 1008.4 hPa Calm     95% 0 mm 0 W/m2
04:29 17.2 °C 16.4 °C 1008.4 hPa Calm     95% 0 mm 0 W/m2
04:34 17.1 °C 16.3 °C 1008 hPa Calm     95% 0 mm 0 W/m2
04:39 17.2 °C 16.3 °C 1008 hPa Calm     95% 0 mm 0 W/m2
04:44 17.2 °C 16.4 °C 1008 hPa Calm     95% 0 mm 0 W/m2
04:49 17.3 °C 16.5 °C 1008 hPa Calm     95.2% 0 mm 0 W/m2
04:54 17.4 °C 16.6 °C 1008 hPa Calm     95.3% 0 mm 0 W/m2
04:59 17.4 °C 16.6 °C 1008.4 hPa Calm     95% 0 mm 0 W/m2
05:04 17.3 °C 16.5 °C 1008.4 hPa Calm     95% 0 mm 0 W/m2
05:09 17.1 °C 16.3 °C 1008 hPa Calm     95% 0 mm 0 W/m2
05:14 17.1 °C 16.2 °C 1008 hPa Calm     95% 0 mm 0 W/m2
05:19 17 °C 16.2 °C 1008.4 hPa Calm     95% 0 mm 0 W/m2
05:24 17.1 °C 16.2 °C 1008.4 hPa Calm     95% 0 mm 0 W/m2
05:29 17.1 °C 16.3 °C 1008.4 hPa Calm     95% 0 mm 0 W/m2
05:34 17.1 °C 16.3 °C 1008.4 hPa Calm     95% 0 mm 0 W/m2
05:39 17.2 °C 16.3 °C 1008 hPa Calm     95% 0 mm 0 W/m2
05:44 17.2 °C 16.4 °C 1008 hPa Calm     95.1% 0 mm 0 W/m2
05:49 17.2 °C 16.6 °C 1008.4 hPa Calm     96% 0 mm 0 W/m2
05:54 17.3 °C 16.7 °C 1008.4 hPa Calm     96% 0 mm 0 W/m2
05:59 17.3 °C 16.7 °C 1008 hPa Calm     96% 0 mm 0 W/m2
06:04 17.3 °C 16.7 °C 1008 hPa Calm     96% 0 mm 0 W/m2
06:09 17.3 °C 16.7 °C 1008 hPa Calm     96% 0 mm 0 W/m2
06:14 17.3 °C 16.7 °C 1008 hPa Calm     96% 0 mm 0 W/m2
06:19 17.3 °C 16.6 °C 1008 hPa Calm     96% 0 mm 0 W/m2
06:24 17.3 °C 16.6 °C 1008.4 hPa Calm     96% 0 mm 0 W/m2
06:29 17.3 °C 16.6 °C 1008.4 hPa Calm     96% 0 mm 0 W/m2
06:34 17.3 °C 16.6 °C 1008.4 hPa Calm     96% 0 mm 0 W/m2
06:39 17.2 °C 16.6 °C 1008 hPa Calm     96% 0 mm 0 W/m2
06:44 17.3 °C 16.7 °C 1008 hPa Calm     96% 0 mm 0 W/m2
06:49 17.4 °C 16.7 °C 1008 hPa Calm     96% 0 mm 0 W/m2
06:54 17.4 °C 16.8 °C 1008 hPa Calm     96% 0 mm 0 W/m2
06:59 17.5 °C 16.8 °C 1008 hPa Calm     96% 0 mm 0 W/m2
07:04 17.5 °C 16.8 °C 1008 hPa Calm     96% 0 mm 0 W/m2
07:09 17.5 °C 16.9 °C 1008 hPa Calm     96% 0 mm 5 W/m2
07:14 17.6 °C 16.9 °C 1008 hPa Calm     96% 0 mm 5 W/m2
07:19 17.6 °C 16.9 °C 1008 hPa Calm     96% 0 mm 5 W/m2
07:24 17.7 °C 17 °C 1008 hPa Calm     96% 0 mm 9 W/m2
07:29 17.7 °C 17.1 °C 1008 hPa Calm     96% 0 mm 9 W/m2
07:34 17.7 °C 17.1 °C 1008 hPa Calm     96% 0 mm 9 W/m2
07:39 17.8 °C 17.2 °C 1008 hPa Calm   1.6 km/h 96% 0 mm 7 W/m2
07:44 17.8 °C 17.2 °C 1008 hPa Calm   1.6 km/h 96% 0 mm 9 W/m2
07:49 17.9 °C 17.3 °C 1008 hPa Calm   1.6 km/h 96% 0 mm 14 W/m2
07:54 18 °C 17.3 °C 1008 hPa Calm   1.6 km/h 96% 0 mm 37 W/m2
07:59 18.1 °C 17.4 °C 1008 hPa Calm   1.6 km/h 96% 0 mm 49 W/m2
08:00 18.1 °C 17.4 °C 1008 hPa Calm   1.6 km/h 96% 0 mm 49 W/m2
08:09 18.3 °C 17.6 °C 1008 hPa Calm     96% 0 mm 60 W/m2
08:14 18.3 °C 17.7 °C 1008 hPa Calm     96% 0 mm 46 W/m2
08:19 18.4 °C 17.8 °C 1008 hPa Calm     96% 0 mm 44 W/m2
08:24 18.6 °C 17.9 °C 1008 hPa Calm     96% 0 mm 62 W/m2
08:29 18.7 °C 18 °C 1008 hPa Calm     96% 0 mm 70 W/m2
08:34 18.8 °C 18.1 °C 1008 hPa Calm     96% 0 mm 54 W/m2
08:39 18.8 °C 18.2 °C 1007.7 hPa Calm     96% 0 mm 91 W/m2
08:44 19 °C 18.3 °C 1007.7 hPa Calm     96% 0 mm 118 W/m2
08:49 19.1 °C 18.5 °C 1007.7 hPa Calm     96% 0 mm 151 W/m2
08:54 19.3 °C 18.7 °C 1007.3 hPa Calm   1.6 km/h 96% 0 mm 287 W/m2
08:59 19.6 °C 18.9 °C 1007.3 hPa Calm   1.6 km/h 96% 0 mm 264 W/m2
09:04 19.7 °C 19.1 °C 1007.3 hPa Calm   1.6 km/h 96% 0 mm 221 W/m2
09:09 19.9 °C 19.1 °C 1007.3 hPa SSW 0.5 km/h 6.4 km/h 95.4% 0 mm 267 W/m2
09:14 20.1 °C 19.1 °C 1007.3 hPa Calm   6.4 km/h 94% 0 mm 320 W/m2
09:19 20.5 °C 19.4 °C 1007.3 hPa Calm   6.4 km/h 93.5% 0 mm 371 W/m2
09:24 21 °C 19.7 °C 1007.3 hPa SSW 0.3 km/h 6.4 km/h 92.3% 0 mm 396 W/m2
09:29 21.6 °C 19.7 °C 1007.3 hPa South 0.3 km/h 8 km/h 89.1% 0 mm 388 W/m2
09:34 22.1 °C 19.5 °C 1007.3 hPa SSW 0.5 km/h 8 km/h 85.6% 0 mm 411 W/m2
09:39 22.4 °C 19.6 °C 1007.3 hPa SW 2.1 km/h 17.7 km/h 83.5% 0 mm 446 W/m2
09:44 22.8 °C 19.4 °C 1007.3 hPa SSW 0.6 km/h 17.7 km/h 81.1% 0 mm 381 W/m2
09:49 22.9 °C 19 °C 1007 hPa South 2.1 km/h 17.7 km/h 78.6% 0 mm 339 W/m2
09:54 22.9 °C 18.8 °C 1007 hPa SSW 2.1 km/h 17.7 km/h 77.4% 0 mm 366 W/m2
09:59 22.9 °C 18.8 °C 1007.3 hPa SSW 2.6 km/h 17.7 km/h 77.8% 0 mm 366 W/m2
10:04 22.9 °C 18.7 °C 1007 hPa SW 2.7 km/h 17.7 km/h 77% 0 mm 285 W/m2
10:09 22.9 °C 18.7 °C 1007 hPa South 0.8 km/h 9.7 km/h 77% 0 mm 385 W/m2
10:14 22.9 °C 18.5 °C 1007 hPa South 1.8 km/h 9.7 km/h 76% 0 mm 241 W/m2
10:19 22.8 °C 18.6 °C 1007 hPa South 1.4 km/h 9.7 km/h 77% 0 mm 237 W/m2
10:24 22.7 °C 18.5 °C 1007 hPa South 2.3 km/h 11.3 km/h 77% 0 mm 234 W/m2
10:29 22.6 °C 18.3 °C 1007 hPa South 2.6 km/h 14.5 km/h 76.5% 0 mm 172 W/m2
10:34 22.5 °C 18.1 °C 1007 hPa SSW 1 km/h 14.5 km/h 76.4% 0 mm 141 W/m2
10:39 22.3 °C 18.1 °C 1007 hPa South 0.3 km/h 11.3 km/h 77% 0 mm 142 W/m2
10:44 22.3 °C 18.3 °C 1007 hPa SSW 0.2 km/h 11.3 km/h 78% 0 mm 160 W/m2
10:49 22.3 °C 18.3 °C 1007 hPa South 0.5 km/h 11.3 km/h 78.4% 0 mm 179 W/m2
10:54 22.3 °C 18.2 °C 1007 hPa South 0.8 km/h 11.3 km/h 78% 0 mm 216 W/m2
10:59 22.3 °C 18.4 °C 1006.7 hPa South 0.6 km/h 11.3 km/h 78.7% 0 mm 244 W/m2
11:04 22.3 °C 18.3 °C 1006.7 hPa South 0.6 km/h 11.3 km/h 78% 0 mm 239 W/m2
11:09 22.4 °C 18.4 °C 1006.7 hPa SSW 0.3 km/h 6.4 km/h 78% 0 mm 221 W/m2
11:14 22.6 °C 18.4 °C 1006.7 hPa SSE 0.5 km/h 6.4 km/h 77.3% 0 mm 243 W/m2
11:19 22.8 °C 18.7 °C 1006.7 hPa SSW 0.5 km/h 6.4 km/h 78% 0 mm 243 W/m2
11:24 22.9 °C 18.6 °C 1006.7 hPa South 1.9 km/h 8 km/h 76.5% 0 mm 202 W/m2
11:29 23 °C 18.4 °C 1006.7 hPa South 1.6 km/h 8 km/h 75.6% 0 mm 190 W/m2
11:34 22.9 °C 18.4 °C 1006.7 hPa SW 1.1 km/h 9.7 km/h 75.5% 0 mm 190 W/m2
11:39 22.9 °C 18.5 °C 1006.7 hPa SSW 0.6 km/h 9.7 km/h 76% 0 mm 190 W/m2
11:44 23 °C 18.6 °C 1007 hPa SW 0.5 km/h 9.7 km/h 76% 0 mm 176 W/m2
11:49 22.9 °C 18.6 °C 1007 hPa SSW 2.6 km/h 11.3 km/h 76.2% 0 mm 176 W/m2
11:53 22.9 °C 18.6 °C 1006.7 hPa WSW 0.6 km/h 11.3 km/h 76.5% 0 mm 181 W/m2
12:09 23.1 °C 18.6 °C 1005.6 hPa South 0.8 km/h 6.4 km/h 76% 0 mm 250 W/m2
12:14 23.1 °C 18.6 °C 1005.6 hPa South 1.3 km/h 9.7 km/h 76% 0 mm 297 W/m2
12:19 23.2 °C 18.7 °C 1006 hPa South 1.8 km/h 9.7 km/h 76% 0 mm 316 W/m2
12:24 23.3 °C 18.6 °C 1005.6 hPa South 2.4 km/h 11.3 km/h 75% 0 mm 301 W/m2
12:29 23.4 °C 18.3 °C 1005.6 hPa South 5.5 km/h 24.1 km/h 73.1% 0 mm 253 W/m2
12:34 23.4 °C 18.3 °C 1005.6 hPa SSW 3.4 km/h 24.1 km/h 72.7% 0 mm 274 W/m2
12:39 23.4 °C 18.1 °C 1005.6 hPa South 4.8 km/h 17.7 km/h 72% 0 mm 274 W/m2
12:44 23.4 °C 18.2 °C 1005.3 hPa SSW 4 km/h 24.1 km/h 72.2% 0 mm 227 W/m2
12:49 23.4 °C 18.1 °C 1005.3 hPa South 1.4 km/h 24.1 km/h 72% 0 mm 229 W/m2
12:54 23.4 °C 17.9 °C 1005 hPa South 4 km/h 24.1 km/h 71.1% 0 mm 223 W/m2
12:59 23.4 °C 18 °C 1005 hPa South 1.8 km/h 24.1 km/h 71.7% 0 mm 207 W/m2
13:04 23.3 °C 18.1 °C 1005 hPa South 2.3 km/h 24.1 km/h 72.1% 0 mm 207 W/m2
13:09 23.3 °C 18.1 °C 1005 hPa SSW 2.3 km/h 11.3 km/h 72.3% 0 mm 197 W/m2
13:14 23.2 °C 18.2 °C 1004.6 hPa SSW 2.4 km/h 11.3 km/h 73% 0 mm 200 W/m2
13:19 23.3 °C 18.3 °C 1004.6 hPa South 2.6 km/h 16.1 km/h 73.9% 0 mm 199 W/m2
13:24 23.2 °C 18.3 °C 1004.6 hPa South 3.7 km/h 17.7 km/h 73.8% 0 mm 190 W/m2
13:29 23.2 °C 18.3 °C 1004.6 hPa South 2.7 km/h 17.7 km/h 74.1% 0 mm 207 W/m2
13:34 23.2 °C 18.3 °C 1004.6 hPa South 1.3 km/h 17.7 km/h 74.3% 0 mm 239 W/m2
13:39 23.3 °C 18.6 °C 1004.3 hPa South 1.1 km/h 9.7 km/h 74.7% 0 mm 236 W/m2
13:44 23.5 °C 18.8 °C 1004.3 hPa SSE 1.6 km/h 9.7 km/h 74.8% 0 mm 216 W/m2
13:49 23.6 °C 18.7 °C 1004.3 hPa SSE 1.8 km/h 9.7 km/h 74.1% 0 mm 162 W/m2
13:54 23.6 °C 18.6 °C 1004.3 hPa South 3.7 km/h 14.5 km/h 74% 0 mm 171 W/m2
13:59 23.5 °C 18.6 °C 1004.3 hPa South 4.5 km/h 22.5 km/h 74% 0 mm 253 W/m2
14:04 23.6 °C 18.9 °C 1003.9 hPa South 2.7 km/h 22.5 km/h 74.8% 0 mm 253 W/m2
14:09 23.8 °C 18.8 °C 1003.9 hPa SSW 3.5 km/h 11.3 km/h 73.5% 0 mm 308 W/m2
14:14 23.9 °C 18.8 °C 1003.9 hPa South 1.8 km/h 11.3 km/h 73.3% 0 mm 285 W/m2
14:19 23.9 °C 18.9 °C 1003.6 hPa South 2.4 km/h 11.3 km/h 73.4% 0 mm 225 W/m2
14:24 23.9 °C 18.8 °C 1003.6 hPa South 3.4 km/h 11.3 km/h 73% 0 mm 334 W/m2
14:29 23.9 °C 18.8 °C 1003.6 hPa SSE 3.2 km/h 11.3 km/h 72.9% 0 mm 343 W/m2
14:34 24.1 °C 18.7 °C 1003.6 hPa SSE 3.2 km/h 11.3 km/h 72.3% 0 mm 251 W/m2
14:39 24.1 °C 18.6 °C 1003.3 hPa South 4.5 km/h 14.5 km/h 71.3% 0 mm 160 W/m2
14:44 24.1 °C 18.5 °C 1003.3 hPa South 4.3 km/h 14.5 km/h 71% 0 mm 213 W/m2
14:49 24.1 °C 18.5 °C 1003.3 hPa SSE 2.6 km/h 14.5 km/h 71% 0 mm 123 W/m2
14:54 24.1 °C 18.3 °C 1003.3 hPa South 2.1 km/h 14.5 km/h 70.5% 0 mm 102 W/m2
14:59 24 °C 18.1 °C 1003.3 hPa South 4.2 km/h 16.1 km/h 69.5% 0 mm 118 W/m2
15:04 24 °C 18.1 °C 1003.3 hPa South 1.4 km/h 16.1 km/h 69.6% 0 mm 188 W/m2
15:09 24 °C 18.2 °C 1002.9 hPa South 4.5 km/h 14.5 km/h 70% 0 mm 188 W/m2
15:14 24 °C 18.3 °C 1002.9 hPa South 3.1 km/h 22.5 km/h 70.7% 0 mm 206 W/m2
15:19 24.1 °C 18.3 °C 1002.9 hPa SSE 3.4 km/h 22.5 km/h 70.1% 0 mm 272 W/m2
15:24 24.1 °C 18.3 °C 1002.9 hPa South 2.6 km/h 22.5 km/h 70.4% 0 mm 410 W/m2
15:29 24.1 °C 18.3 °C 1002.9 hPa SSE 3.2 km/h 22.5 km/h 70% 0 mm 258 W/m2
15:34 24.1 °C 18.3 °C 1002.9 hPa South 2.6 km/h 22.5 km/h 70.4% 0 mm 111 W/m2
15:39 23.9 °C 18.4 °C 1002.9 hPa SSW 2.3 km/h 19.3 km/h 71.3% 0 mm 97 W/m2
15:44 23.7 °C 18.3 °C 1002.9 hPa South 2.3 km/h 19.3 km/h 71.9% 0 mm 95 W/m2
15:49 23.6 °C 18.4 °C 1002.9 hPa South 3.4 km/h 19.3 km/h 72.5% 0 mm 120 W/m2
15:54 23.6 °C 18.2 °C 1002.9 hPa South 4.3 km/h 19.3 km/h 72.1% 0 mm 120 W/m2
15:59 23.6 °C 18.3 °C 1002.6 hPa South 4.3 km/h 19.3 km/h 72.2% 0 mm 95 W/m2
16:00 23.6 °C 18.4 °C 1002.6 hPa Calm   19.3 km/h 73% 0 mm 91 W/m2
16:09 23.4 °C 18.6 °C 1002.6 hPa SSW 1.9 km/h 11.3 km/h 74% 0 mm 98 W/m2
16:14 23.3 °C 18.4 °C 1002.6 hPa SSW 0.6 km/h 11.3 km/h 74% 0 mm 98 W/m2
16:19 23.3 °C 18.4 °C 1002.6 hPa SSE 2.7 km/h 16.1 km/h 74% 0 mm 102 W/m2
16:24 23.3 °C 18.4 °C 1002.3 hPa South 5.3 km/h 16.1 km/h 74.1% 0 mm 77 W/m2
16:29 23.2 °C 18.5 °C 1002.3 hPa South 2.1 km/h 16.1 km/h 74.8% 0 mm 90 W/m2
16:34 23.2 °C 18.5 °C 1002.3 hPa SSE 2.4 km/h 16.1 km/h 75% 0 mm 49 W/m2
16:39 23.2 °C 18.5 °C 1002.3 hPa South 4 km/h 11.3 km/h 75% 0 mm 40 W/m2
16:44 23.1 °C 18.4 °C 1002.3 hPa South 3.5 km/h 12.9 km/h 75% 0 mm 51 W/m2
16:49 23.1 °C 18.5 °C 1002.3 hPa South 3.1 km/h 12.9 km/h 75.6% 0 mm 37 W/m2
16:54 22.9 °C 18.4 °C 1002.3 hPa South 1.9 km/h 12.9 km/h 75.5% 0 mm 32 W/m2
16:59 22.9 °C 18.4 °C 1002.3 hPa South 1.3 km/h 12.9 km/h 75.7% 0 mm 47 W/m2
17:04 22.8 °C 18.2 °C 1001.9 hPa South 2.9 km/h 12.9 km/h 75% 0 mm 30 W/m2
17:09 22.7 °C 18.1 °C 1001.9 hPa South 3.1 km/h 16.1 km/h 75% 0 mm 35 W/m2
17:14 22.7 °C 18 °C 1001.9 hPa South 2.4 km/h 16.1 km/h 75% 0 mm 35 W/m2
17:19 22.6 °C 17.9 °C 1001.9 hPa South 1.4 km/h 16.1 km/h 75% 0 mm 32 W/m2
17:24 22.5 °C 17.8 °C 1001.9 hPa South 1.6 km/h 16.1 km/h 75% 0 mm 19 W/m2
17:29 22.4 °C 17.6 °C 1001.6 hPa SSE 1.9 km/h 16.1 km/h 74.3% 0 mm 19 W/m2
17:34 22.3 °C 17.5 °C 1001.9 hPa SSE 0.3 km/h 16.1 km/h 74% 0 mm 18 W/m2
17:39 22.3 °C 17.3 °C 1001.9 hPa South 3.5 km/h 12.9 km/h 73.5% 0 mm 11 W/m2
17:44 22.2 °C 17.3 °C 1001.9 hPa South 2.4 km/h 16.1 km/h 73.6% 0 mm 7 W/m2
17:49 22.2 °C 17.3 °C 1001.9 hPa South 3.5 km/h 17.7 km/h 74% 0 mm 0 W/m2
17:54 22.1 °C 17.3 °C 1001.9 hPa South 0.8 km/h 17.7 km/h 74.2% 0 mm 0 W/m2
17:59 22 °C 17.4 °C 1001.9 hPa SSE 0.6 km/h 17.7 km/h 75% 0 mm 0 W/m2
18:04 21.9 °C 17.3 °C 1001.9 hPa South 1 km/h 17.7 km/h 75.2% 0 mm 0 W/m2
18:09 21.8 °C 17.4 °C 1001.6 hPa South 3.5 km/h 14.5 km/h 76.1% 0 mm 0 W/m2
18:14 21.8 °C 17.7 °C 1001.6 hPa South 3.9 km/h 19.3 km/h 77.3% 0 mm 0 W/m2
18:19 21.7 °C 17.7 °C 1001.2 hPa South 1.9 km/h 19.3 km/h 78.1% 0 mm 0 W/m2
18:24 21.7 °C 17.9 °C 1001.6 hPa South 1.1 km/h 19.3 km/h 79% 0 mm 0 W/m2
18:29 21.6 °C 18 °C 1001.6 hPa South 1.3 km/h 19.3 km/h 80% 0 mm 0 W/m2
18:34 21.6 °C 18.2 °C 1001.6 hPa South 1.8 km/h 19.3 km/h 80.9% 0 mm 0 W/m2
18:39 21.6 °C 18.2 °C 1001.6 hPa South 2.9 km/h 14.5 km/h 81% 0 mm 0 W/m2
18:44 21.7 °C 18.4 °C 1001.6 hPa South 1.9 km/h 14.5 km/h 82% 0 mm 0 W/m2
18:49 21.7 °C 18.4 °C 1001.6 hPa South 3.4 km/h 16.1 km/h 82% 0 mm 0 W/m2
18:54 21.6 °C 18.4 °C 1001.9 hPa South 0.5 km/h 16.1 km/h 82.1% 0 mm 0 W/m2
18:59 21.6 °C 18.6 °C 1001.9 hPa South 0.6 km/h 16.1 km/h 83% 0 mm 0 W/m2
19:04 21.6 °C 18.6 °C 1001.9 hPa South 1 km/h 16.1 km/h 83% 0 mm 0 W/m2
19:09 21.6 °C 18.6 °C 1001.9 hPa SSE 2.4 km/h 11.3 km/h 83.2% 0 mm 0 W/m2
19:14 21.6 °C 18.6 °C 1002.3 hPa SSE 2.4 km/h 11.3 km/h 83% 0 mm 0 W/m2
19:19 21.6 °C 18.8 °C 1002.3 hPa South 0.6 km/h 11.3 km/h 83.8% 0 mm 0 W/m2
19:24 21.7 °C 18.8 °C 1002.3 hPa South 0.2 km/h 11.3 km/h 84% 0 mm 0 W/m2
19:29 21.7 °C 18.8 °C 1001.9 hPa South 0.3 km/h 11.3 km/h 83.9% 0 mm 0 W/m2
19:34 21.7 °C 18.8 °C 1002.6 hPa SW 2.1 km/h 11.3 km/h 84.1% 0.25 mm 0 W/m2
19:39 21.5 °C 18.4 °C 1002.6 hPa WSW 1.4 km/h 19.3 km/h 82.6% 0.25 mm 0 W/m2
19:44 21.1 °C 17.8 °C 1002.6 hPa WSW 0.8 km/h 19.3 km/h 81.5% 0.25 mm 0 W/m2
19:49 20.8 °C 17.6 °C 1002.3 hPa WSW 1.3 km/h 19.3 km/h 82.2% 0.25 mm 0 W/m2
19:54 20.4 °C 17.4 °C 1002.6 hPa West 2.7 km/h 19.3 km/h 83.2% 0.25 mm 0 W/m2
19:59 20.1 °C 17.4 °C 1002.6 hPa West 1.3 km/h 19.3 km/h 84.3% 0.25 mm 0 W/m2
20:00 20 °C 17.4 °C 1002.6 hPa Calm   19.3 km/h 85% 0.25 mm 0 W/m2
20:09 19.7 °C 17.2 °C 1002.6 hPa WNW 6.9 km/h 20.9 km/h 85.6% 0.25 mm 0 W/m2
20:14 19.5 °C 17 °C 1002.6 hPa WNW 3.9 km/h 20.9 km/h 85.5% 0.25 mm 0 W/m2
20:19 19.3 °C 16.9 °C 1002.6 hPa WNW 1.3 km/h 20.9 km/h 86% 0.25 mm 0 W/m2
20:24 19.3 °C 16.9 °C 1002.9 hPa West 1.1 km/h 20.9 km/h 86.2% 0.25 mm 0 W/m2
20:29 19.1 °C 16.7 °C 1002.9 hPa West 2.4 km/h 20.9 km/h 86% 0.25 mm 0 W/m2
20:34 19 °C 16.6 °C 1002.9 hPa West 3.4 km/h 20.9 km/h 86% 0.25 mm 0 W/m2
20:39 18.9 °C 16.5 °C 1002.9 hPa WNW 2.3 km/h 16.1 km/h 86% 0.25 mm 0 W/m2
20:44 18.8 °C 16.4 °C 1002.9 hPa West 0.5 km/h 16.1 km/h 86% 0.25 mm 0 W/m2
20:49 18.8 °C 16.6 °C 1002.9 hPa WNW 1 km/h 16.1 km/h 86.9% 0.25 mm 0 W/m2
20:54 18.8 °C 16.6 °C 1003.3 hPa Calm   16.1 km/h 87.4% 0.51 mm 0 W/m2
20:59 18.8 °C 16.7 °C 1003.3 hPa NW 0.3 km/h 16.1 km/h 88% 0.51 mm 0 W/m2
21:04 18.7 °C 16.7 °C 1003.3 hPa Calm   16.1 km/h 88% 0.51 mm 0 W/m2
21:09 18.6 °C 16.7 °C 1003.3 hPa NNW 0.3 km/h 9.7 km/h 88.8% 0.25 mm 0 W/m2
21:14 18.5 °C 16.7 °C 1003.3 hPa Calm   9.7 km/h 89% 0.51 mm 0 W/m2
21:19 18.4 °C 16.7 °C 1003.6 hPa Calm   9.7 km/h 89.4% 0.76 mm 0 W/m2
21:24 18.4 °C 16.8 °C 1003.6 hPa WNW 0.3 km/h 11.3 km/h 90% 1.02 mm 0 W/m2
21:29 18.3 °C 16.7 °C 1003.9 hPa NW 5.1 km/h 17.7 km/h 90% 1.27 mm 0 W/m2
21:34 17.9 °C 16 °C 1003.9 hPa NNW 7.4 km/h 24.1 km/h 88.2% 1.78 mm 0 W/m2
21:39 17.4 °C 15 °C 1003.9 hPa NW 5.6 km/h 24.1 km/h 85.9% 1.78 mm 0 W/m2
21:44 17 °C 14.7 °C 1004.6 hPa WNW 3.5 km/h 24.1 km/h 86% 1.78 mm 0 W/m2
21:49 16.8 °C 14.5 °C 1004.6 hPa NW 1.4 km/h 24.1 km/h 86.6% 1.78 mm 0 W/m2
21:54 16.6 °C 14.4 °C 1004.6 hPa NW 1 km/h 24.1 km/h 87% 2.03 mm 0 W/m2
21:59 16.4 °C 14.5 °C 1004.6 hPa Calm   24.1 km/h 88.2% 2.03 mm 0 W/m2
22:04 16.3 °C 14.3 °C 1004.3 hPa NNW 4.7 km/h 24.1 km/h 88.2% 2.03 mm 0 W/m2
22:09 16.1 °C 14.1 °C 1004.6 hPa NW 1.6 km/h 22.5 km/h 88% 1.78 mm 0 W/m2
22:14 16 °C 14.1 °C 1005 hPa NW 0.5 km/h 22.5 km/h 88.5% 1.78 mm 0 W/m2
22:19 15.9 °C 14.2 °C 1005 hPa NW 0.8 km/h 22.5 km/h 89% 1.78 mm 0 W/m2
22:24 15.9 °C 14.2 °C 1004.6 hPa NW 1 km/h 22.5 km/h 89.4% 1.78 mm 0 W/m2
22:29 15.8 °C 14.2 °C 1005.3 hPa West 1.9 km/h 22.5 km/h 90% 2.03 mm 0 W/m2
22:34 15.8 °C 14.2 °C 1005.3 hPa West 2.4 km/h 22.5 km/h 90.4% 2.03 mm 0 W/m2
22:39 15.7 °C 14.1 °C 1005.6 hPa WNW 1.6 km/h 11.3 km/h 90% 2.03 mm 0 W/m2
22:44 15.5 °C 13.9 °C 1005.3 hPa NNW 0.5 km/h 11.3 km/h 90% 2.79 mm 0 W/m2
22:49 15.4 °C 13.7 °C 1005.3 hPa WNW 1.4 km/h 14.5 km/h 90% 3.3 mm 0 W/m2
22:54 15.2 °C 13.8 °C 1005.3 hPa NNW 2.7 km/h 14.5 km/h 91% 3.81 mm 0 W/m2
22:59 15.1 °C 13.7 °C 1005.3 hPa NNW 0.2 km/h 14.5 km/h 91% 4.32 mm 0 W/m2
23:04 15 °C 13.6 °C 1005 hPa NNW 0.2 km/h 14.5 km/h 91% 4.32 mm 0 W/m2
23:09 14.9 °C 13.6 °C 1005.3 hPa NNW 0.6 km/h 6.4 km/h 91.7% 4.06 mm 0 W/m2
23:14 14.9 °C 13.6 °C 1005 hPa Calm   6.4 km/h 92% 4.32 mm 0 W/m2
23:19 14.8 °C 13.6 °C 1005 hPa Calm   6.4 km/h 92% 4.57 mm 0 W/m2
23:24 14.8 °C 13.5 °C 1005.3 hPa Calm   6.4 km/h 92% 4.57 mm 0 W/m2
23:29 14.7 °C 13.4 °C 1005.3 hPa Calm   6.4 km/h 92% 4.83 mm 0 W/m2
23:34 14.7 °C 13.5 °C 1005 hPa Calm   6.4 km/h 92.9% 4.83 mm 0 W/m2
23:39 14.6 °C 13.5 °C 1005 hPa Calm     93% 4.83 mm 0 W/m2
23:43 14.6 °C 13.4 °C 1004.6 hPa Calm     93% 4.83 mm 0 W/m2
Hartford County Weather
Compliments of Weather Underground - 4 mb